createdAt,value
2019-02-15T00:01:44.357Z,31.33
2019-02-15T00:04:12.640Z,37.87
2019-02-15T00:06:40.894Z,34.20
2019-02-15T00:09:09.255Z,29.83
2019-02-15T00:11:37.529Z,32.13
2019-02-15T00:14:05.881Z,31.63
2019-02-15T00:16:34.184Z,29.33
2019-02-15T00:19:04.134Z,30.43
2019-02-15T00:21:32.447Z,33.80
2019-02-15T00:24:00.730Z,34.30
2019-02-15T00:26:28.970Z,30.40
2019-02-15T00:28:57.239Z,30.90
2019-02-15T00:31:25.606Z,31.33
2019-02-15T00:33:53.941Z,34.23
2019-02-15T00:36:22.234Z,33.73
2019-02-15T00:38:50.584Z,31.77
2019-02-15T00:41:18.859Z,28.83
2019-02-15T00:43:47.152Z,30.33
2019-02-15T00:46:17.059Z,32.03
2019-02-15T00:48:45.339Z,35.87
2019-02-15T00:51:24.154Z,30.47
2019-02-15T00:53:54.066Z,28.60
2019-02-15T00:56:23.977Z,33.60
2019-02-15T00:59:10.087Z,30.40
2019-02-15T01:01:39.991Z,37.77
2019-02-15T01:04:11.609Z,27.87
2019-02-15T01:06:57.652Z,34.30
2019-02-15T01:09:30.577Z,30.13
2019-02-15T01:12:06.716Z,27.43
2019-02-15T01:14:35.016Z,35.93
2019-02-15T01:17:03.809Z,33.63
2019-02-15T01:19:32.103Z,37.40
2019-02-15T01:22:00.415Z,30.70
2019-02-15T01:24:28.686Z,30.60
2019-02-15T01:27:01.357Z,32.87
2019-02-15T01:29:37.424Z,34.80
2019-02-15T01:32:07.380Z,28.40
2019-02-15T01:34:40.266Z,32.87
2019-02-15T01:37:22.208Z,33.67
2019-02-15T01:39:53.088Z,38.30
2019-02-15T01:42:23.034Z,33.90
2019-02-15T01:44:52.962Z,30.67
2019-02-15T01:47:21.417Z,32.33
2019-02-15T01:49:49.699Z,32.60
2019-02-15T01:52:17.990Z,34.87
2019-02-15T01:54:46.271Z,37.23
2019-02-15T01:57:14.543Z,35.60
2019-02-15T01:59:42.821Z,32.17
2019-02-15T02:02:11.156Z,37.20
2019-02-15T02:04:39.798Z,36.90
2019-02-15T02:07:08.158Z,32.50
2019-02-15T02:09:36.454Z,28.80
2019-02-15T02:12:05.613Z,34.70
2019-02-15T02:14:33.902Z,36.23
2019-02-15T02:17:02.170Z,31.73
2019-02-15T02:19:30.470Z,31.37
2019-02-15T02:21:58.749Z,32.60
2019-02-15T02:24:27.064Z,37.40
2019-02-15T02:26:55.396Z,30.10
2019-02-15T02:29:23.666Z,32.43
2019-02-15T02:31:51.966Z,31.10
2019-02-15T02:34:20.205Z,29.33
2019-02-15T02:36:50.829Z,28.27
2019-02-15T02:39:19.186Z,31.10
2019-02-15T02:41:47.448Z,33.00
2019-02-15T02:44:15.726Z,29.83
2019-02-15T02:46:43.984Z,38.13
2019-02-15T02:49:12.297Z,32.73
2019-02-15T02:51:40.573Z,35.03
2019-02-15T02:54:08.883Z,30.83
2019-02-15T02:56:37.142Z,37.60
2019-02-15T02:59:05.404Z,36.03
2019-02-15T03:01:33.691Z,31.00
2019-02-15T03:04:01.965Z,26.87
2019-02-15T03:06:30.223Z,27.40
2019-02-15T03:08:58.487Z,30.73
2019-02-15T03:11:26.753Z,28.33
2019-02-15T03:13:55.043Z,37.87
2019-02-15T03:16:23.310Z,32.70
2019-02-15T03:18:51.577Z,33.77
2019-02-15T03:21:19.850Z,33.43
2019-02-15T03:23:48.156Z,33.00
2019-02-15T03:26:16.473Z,32.27
2019-02-15T03:28:44.736Z,30.57
2019-02-15T03:31:13.000Z,30.70
2019-02-15T03:33:41.277Z,30.03
2019-02-15T03:36:11.202Z,33.67
2019-02-15T03:38:41.116Z,31.30
2019-02-15T03:41:11.027Z,35.27
2019-02-15T03:43:39.300Z,32.60
2019-02-15T03:46:07.562Z,36.43
2019-02-15T03:48:35.824Z,36.67
2019-02-15T03:51:04.081Z,36.60
2019-02-15T03:53:32.342Z,32.87
2019-02-15T03:56:00.602Z,36.17
2019-02-15T03:58:28.876Z,34.23
2019-02-15T04:00:57.134Z,37.50
2019-02-15T04:03:25.418Z,36.30
2019-02-15T04:05:53.689Z,44.33
2019-02-15T04:08:22.021Z,39.00
2019-02-15T04:10:50.288Z,42.50
2019-02-15T04:13:18.565Z,36.07
2019-02-15T04:15:46.852Z,39.57
2019-02-15T04:18:15.105Z,42.57
2019-02-15T04:20:43.403Z,33.90
2019-02-15T04:23:11.640Z,38.10
2019-02-15T04:25:39.896Z,36.03
2019-02-15T04:28:08.170Z,36.07
2019-02-15T04:30:36.436Z,37.97
2019-02-15T04:33:04.728Z,40.50
2019-02-15T04:35:32.999Z,33.23
2019-02-15T04:38:01.254Z,36.67
2019-02-15T04:40:29.546Z,41.13
2019-02-15T04:42:57.811Z,39.93
2019-02-15T04:45:26.066Z,40.37
2019-02-15T04:47:54.512Z,39.67
2019-02-15T04:50:22.795Z,40.40
2019-02-15T04:52:51.072Z,36.60
2019-02-15T04:55:19.342Z,36.67
2019-02-15T04:57:48.293Z,41.80
2019-02-15T05:00:16.541Z,34.50
2019-02-15T05:02:47.396Z,37.97
2019-02-15T05:05:15.654Z,34.20
2019-02-15T05:07:43.922Z,37.70
2019-02-15T05:10:12.220Z,38.07
2019-02-15T05:12:40.479Z,33.97
2019-02-15T05:15:09.220Z,35.70
2019-02-15T05:17:37.507Z,35.83
2019-02-15T05:20:07.414Z,34.40
2019-02-15T05:22:35.683Z,39.27
2019-02-15T05:25:04.017Z,36.60
2019-02-15T05:27:32.282Z,34.53
2019-02-15T05:30:00.578Z,39.80
2019-02-15T05:32:28.886Z,35.57
2019-02-15T05:34:57.115Z,43.47
2019-02-15T05:37:25.373Z,39.13
2019-02-15T05:39:53.630Z,45.63
2019-02-15T05:42:21.903Z,39.70
2019-02-15T05:44:50.165Z,39.07
2019-02-15T05:47:18.472Z,37.73
2019-02-15T05:49:46.743Z,39.87
2019-02-15T05:52:15.000Z,39.70
2019-02-15T05:54:43.274Z,37.10
2019-02-15T05:57:11.542Z,37.23
2019-02-15T05:59:39.804Z,35.20
2019-02-15T06:02:08.143Z,37.10
2019-02-15T06:04:36.398Z,41.67
2019-02-15T06:07:04.705Z,33.77
2019-02-15T06:09:32.967Z,34.23
2019-02-15T06:12:01.225Z,40.23
2019-02-15T06:14:29.501Z,39.33
2019-02-15T06:16:57.754Z,38.23
2019-02-15T06:19:26.149Z,43.27
2019-02-15T06:21:54.419Z,45.53
2019-02-15T06:24:22.681Z,44.30
2019-02-15T06:26:51.021Z,45.97
2019-02-15T06:29:19.317Z,50.13
2019-02-15T06:31:47.580Z,51.03
2019-02-15T06:34:15.850Z,50.10
2019-02-15T06:36:44.140Z,47.60
2019-02-15T06:39:12.399Z,47.77
2019-02-15T06:41:40.670Z,46.50
2019-02-15T06:44:08.932Z,43.00
2019-02-15T06:46:37.221Z,41.30
2019-02-15T06:49:05.521Z,41.73
2019-02-15T06:51:33.787Z,41.70
2019-02-15T06:54:02.147Z,47.50
2019-02-15T06:56:30.548Z,41.60
2019-02-15T06:59:09.368Z,42.83
2019-02-15T07:01:39.273Z,46.63
2019-02-15T07:04:21.320Z,42.93
2019-02-15T07:06:49.599Z,44.90
2019-02-15T07:09:17.849Z,46.63
2019-02-15T07:11:46.113Z,43.57
2019-02-15T07:14:14.377Z,47.17
2019-02-15T07:16:42.717Z,58.80
2019-02-15T07:19:10.972Z,52.13
2019-02-15T07:21:39.264Z,56.20
2019-02-15T07:24:07.532Z,50.90
2019-02-15T07:26:35.797Z,51.23
2019-02-15T07:29:04.087Z,52.53
2019-02-15T07:31:32.348Z,54.47
2019-02-15T07:34:00.613Z,53.13
2019-02-15T07:36:28.879Z,61.30
2019-02-15T07:38:57.144Z,51.37
2019-02-15T07:41:25.410Z,53.77
2019-02-15T07:43:53.676Z,51.70
2019-02-15T07:46:22.040Z,52.87
2019-02-15T07:48:50.307Z,56.30
2019-02-15T07:51:18.567Z,59.07
2019-02-15T07:53:46.844Z,68.87
2019-02-15T07:56:15.130Z,73.27
2019-02-15T07:58:43.390Z,71.53
2019-02-15T08:01:11.654Z,76.23
2019-02-15T08:03:39.921Z,74.53
2019-02-15T08:06:08.177Z,77.70
2019-02-15T08:08:36.465Z,80.13
2019-02-15T08:11:04.723Z,77.20
2019-02-15T08:13:32.986Z,79.67
2019-02-15T08:16:02.783Z,78.70
2019-02-15T08:18:31.315Z,80.37
2019-02-15T08:20:59.651Z,97.00
2019-02-15T08:23:27.947Z,89.43
2019-02-15T08:25:56.209Z,90.97
2019-02-15T08:28:24.460Z,89.00
2019-02-15T08:30:52.729Z,98.43
2019-02-15T08:33:20.990Z,88.93
2019-02-15T08:35:49.262Z,95.70
2019-02-15T08:38:17.570Z,107.57
2019-02-15T08:40:45.824Z,110.97
2019-02-15T08:43:14.093Z,119.33
2019-02-15T08:45:42.360Z,111.90
2019-02-15T08:48:10.619Z,122.17
2019-02-15T08:50:38.891Z,119.80
2019-02-15T08:53:07.158Z,133.20
2019-02-15T08:55:35.434Z,139.37
2019-02-15T08:58:03.709Z,136.90
2019-02-15T09:00:31.968Z,137.13
2019-02-15T09:03:00.245Z,124.87
2019-02-15T09:05:28.523Z,125.90
2019-02-15T09:07:56.785Z,107.97
2019-02-15T09:10:25.049Z,97.17
2019-02-15T09:12:53.301Z,94.03
2019-02-15T09:15:23.430Z,83.67
2019-02-15T09:17:51.718Z,81.70
2019-02-15T09:20:20.005Z,75.03
2019-02-15T09:22:48.268Z,93.10
2019-02-15T09:25:16.520Z,80.73
2019-02-15T09:27:46.425Z,66.47
2019-02-15T09:30:15.093Z,69.90
2019-02-15T09:32:43.351Z,63.63
2019-02-15T09:35:12.186Z,64.57
2019-02-15T09:37:40.441Z,69.30
2019-02-15T09:40:10.134Z,56.67
2019-02-15T09:42:38.404Z,64.10
2019-02-15T09:45:09.926Z,61.73
2019-02-15T09:47:38.190Z,51.23
2019-02-15T09:50:09.746Z,57.07
2019-02-15T09:52:38.771Z,60.40
2019-02-15T09:55:07.072Z,52.13
2019-02-15T09:57:35.334Z,55.33
2019-02-15T10:00:03.785Z,53.17
2019-02-15T10:02:32.058Z,51.83
2019-02-15T10:05:00.370Z,51.87
2019-02-15T10:07:28.643Z,54.70
2019-02-15T10:09:56.902Z,47.73
2019-02-15T10:12:25.171Z,47.40
2019-02-15T10:14:53.441Z,50.10
2019-02-15T10:17:21.713Z,45.00
2019-02-15T10:19:49.976Z,45.93
2019-02-15T10:22:18.248Z,51.63
2019-02-15T10:24:46.524Z,46.83
2019-02-15T10:27:14.789Z,43.43
2019-02-15T10:29:43.058Z,39.47
2019-02-15T10:32:11.321Z,39.63
2019-02-15T10:34:39.652Z,39.20
2019-02-15T10:37:07.946Z,40.17
2019-02-15T10:39:36.275Z,39.57
2019-02-15T10:42:04.544Z,40.83
2019-02-15T10:44:32.803Z,36.50
2019-02-15T10:47:01.073Z,39.10
2019-02-15T10:49:29.372Z,36.07
2019-02-15T10:51:57.642Z,38.67
2019-02-15T10:54:25.898Z,39.13
2019-02-15T10:56:54.260Z,35.93
2019-02-15T10:59:22.521Z,35.33
2019-02-15T11:01:50.781Z,44.77
2019-02-15T11:04:19.065Z,35.27
2019-02-15T11:06:47.390Z,34.37
2019-02-15T11:09:15.730Z,35.37
2019-02-15T11:11:43.991Z,39.37
2019-02-15T11:14:12.258Z,39.77
2019-02-15T11:16:46.953Z,36.90
2019-02-15T11:19:10.530Z,36.00
2019-02-15T11:21:38.793Z,36.37
2019-02-15T11:24:07.079Z,38.47
2019-02-15T11:26:35.361Z,32.37
2019-02-15T11:29:03.627Z,31.73
2019-02-15T11:31:31.881Z,34.90
2019-02-15T11:34:00.146Z,38.47
2019-02-15T11:36:29.804Z,38.60
2019-02-15T11:38:58.254Z,34.40
2019-02-15T11:41:26.591Z,31.07
2019-02-15T11:43:54.848Z,33.60
2019-02-15T11:46:23.115Z,38.33
2019-02-15T11:48:51.382Z,28.33
2019-02-15T11:51:19.653Z,40.33
2019-02-15T11:53:48.130Z,35.30
2019-02-15T11:56:16.366Z,33.53
2019-02-15T11:58:44.632Z,31.07
2019-02-15T12:01:12.893Z,33.93
2019-02-15T12:03:41.156Z,29.53
2019-02-15T12:06:09.442Z,30.83
2019-02-15T12:08:37.707Z,31.93
2019-02-15T12:11:05.966Z,30.77
2019-02-15T12:13:34.324Z,33.00
2019-02-15T12:16:02.732Z,36.63
2019-02-15T12:18:37.809Z,30.20
2019-02-15T12:21:06.173Z,31.20
2019-02-15T12:23:34.649Z,30.37
2019-02-15T12:26:02.908Z,30.80
2019-02-15T12:28:31.209Z,31.00
2019-02-15T12:30:59.460Z,29.60
2019-02-15T12:33:27.734Z,31.53
2019-02-15T12:35:56.014Z,35.67
2019-02-15T12:38:24.284Z,28.47
2019-02-15T12:40:52.621Z,29.40
2019-02-15T12:43:21.048Z,30.27
2019-02-15T12:45:49.535Z,29.07
2019-02-15T12:48:17.868Z,28.80
2019-02-15T12:50:46.214Z,32.53
2019-02-15T12:53:14.463Z,32.73
2019-02-15T12:55:42.732Z,30.30
2019-02-15T12:58:11.096Z,29.97
2019-02-15T13:00:39.367Z,30.47
2019-02-15T13:03:07.818Z,30.23
2019-02-15T13:05:36.101Z,33.50
2019-02-15T13:08:04.360Z,31.90
2019-02-15T13:10:34.549Z,38.13
2019-02-15T13:13:02.804Z,32.00
2019-02-15T13:15:31.241Z,27.33
2019-02-15T13:17:59.511Z,31.07
2019-02-15T13:20:27.891Z,27.77
2019-02-15T13:22:56.292Z,26.03
2019-02-15T13:25:24.745Z,29.97
2019-02-15T13:27:53.235Z,26.47
2019-02-15T13:30:21.664Z,27.43
2019-02-15T13:32:50.109Z,28.23
2019-02-15T13:35:23.469Z,24.43
2019-02-15T13:37:52.037Z,25.77
2019-02-15T13:40:20.323Z,27.17
2019-02-15T13:42:48.668Z,27.20
2019-02-15T13:45:17.217Z,26.17
2019-02-15T13:47:45.646Z,30.47
2019-02-15T13:50:15.036Z,36.27
2019-02-15T13:52:43.990Z,27.73
2019-02-15T13:55:12.339Z,29.37
2019-02-15T13:57:40.632Z,28.77
2019-02-15T14:00:14.465Z,28.13
2019-02-15T14:02:43.239Z,28.33
2019-02-15T14:05:12.354Z,31.80
2019-02-15T14:07:41.343Z,27.27
2019-02-15T14:10:14.295Z,31.13
2019-02-15T14:12:42.657Z,26.03
2019-02-15T14:15:12.146Z,29.13
2019-02-15T14:17:44.901Z,30.90
2019-02-15T14:20:13.962Z,31.77
2019-02-15T14:22:42.224Z,30.50
2019-02-15T14:25:12.675Z,29.43
2019-02-15T14:27:40.979Z,31.90
2019-02-15T14:30:11.735Z,30.40
2019-02-15T14:32:40.090Z,34.03
2019-02-15T14:35:10.158Z,33.17
2019-02-15T14:37:38.394Z,32.40
2019-02-15T14:40:09.112Z,31.60
2019-02-15T14:42:37.412Z,33.23
2019-02-15T14:45:07.461Z,31.70
2019-02-15T14:47:35.777Z,34.80
2019-02-15T14:50:04.619Z,30.87
2019-02-15T14:52:32.938Z,30.33
2019-02-15T14:55:01.203Z,35.10
2019-02-15T14:57:29.463Z,32.03
2019-02-15T14:59:57.830Z,33.10
2019-02-15T15:02:26.225Z,33.97
2019-02-15T15:04:54.508Z,28.37
2019-02-15T15:07:22.778Z,34.37
2019-02-15T15:09:51.064Z,31.47
2019-02-15T15:12:19.338Z,31.50
2019-02-15T15:14:47.636Z,30.53
2019-02-15T15:17:15.900Z,31.67
2019-02-15T15:19:45.082Z,30.40
2019-02-15T15:22:17.717Z,30.63
2019-02-15T15:24:46.072Z,27.33
2019-02-15T15:27:23.140Z,29.03
2019-02-15T15:29:59.993Z,27.50
2019-02-15T15:32:28.271Z,29.80
2019-02-15T15:35:02.110Z,29.97
2019-02-15T15:37:30.374Z,28.93
2019-02-15T15:39:58.657Z,30.03
2019-02-15T15:42:27.009Z,30.23
2019-02-15T15:44:55.363Z,27.77
2019-02-15T15:47:23.739Z,27.07
2019-02-15T15:49:52.036Z,26.83
2019-02-15T15:52:20.394Z,25.67
2019-02-15T15:54:48.677Z,27.10
2019-02-15T15:57:16.965Z,28.43
2019-02-15T15:59:45.238Z,33.87
2019-02-15T16:02:13.535Z,25.70
2019-02-15T16:04:41.792Z,23.97
2019-02-15T16:07:10.059Z,28.33
2019-02-15T16:09:38.318Z,30.37
2019-02-15T16:12:06.569Z,28.27
2019-02-15T16:14:34.856Z,24.83
2019-02-15T16:17:03.121Z,25.40
2019-02-15T16:19:31.385Z,25.43
2019-02-15T16:21:59.675Z,28.07
2019-02-15T16:24:27.937Z,22.40
2019-02-15T16:26:56.238Z,21.47
2019-02-15T16:29:24.562Z,25.30
2019-02-15T16:31:52.829Z,24.73
2019-02-15T16:34:21.094Z,25.43
2019-02-15T16:36:49.390Z,30.07
2019-02-15T16:39:17.696Z,23.03
2019-02-15T16:41:45.981Z,23.30
2019-02-15T16:44:14.248Z,21.87
2019-02-15T16:46:42.515Z,26.03
2019-02-15T16:49:10.791Z,26.63
2019-02-15T16:51:39.047Z,26.00
2019-02-15T16:54:07.315Z,25.00
2019-02-15T16:56:35.577Z,19.10
2019-02-15T16:59:03.843Z,28.43
2019-02-15T17:01:32.116Z,23.77
2019-02-15T17:04:00.378Z,26.20
2019-02-15T17:06:28.662Z,23.73
2019-02-15T17:08:56.923Z,23.17
2019-02-15T17:11:25.178Z,22.77
2019-02-15T17:13:53.482Z,22.10
2019-02-15T17:16:21.727Z,25.77
2019-02-15T17:18:52.235Z,25.83
2019-02-15T17:21:19.970Z,25.73
2019-02-15T17:23:48.232Z,27.87
2019-02-15T17:26:16.517Z,27.03
2019-02-15T17:28:44.775Z,26.70
2019-02-15T17:31:13.035Z,30.10
2019-02-15T17:33:41.300Z,31.63
2019-02-15T17:36:09.563Z,29.33
2019-02-15T17:38:37.884Z,29.40
2019-02-15T17:41:06.165Z,26.47
2019-02-15T17:43:34.450Z,34.53
2019-02-15T17:46:02.719Z,29.10
2019-02-15T17:48:30.973Z,33.30
2019-02-15T17:50:59.258Z,32.70
2019-02-15T17:53:27.529Z,34.53
2019-02-15T17:55:55.805Z,37.07
2019-02-15T17:58:24.062Z,29.87
2019-02-15T18:00:52.331Z,27.73
2019-02-15T18:03:20.613Z,32.63
2019-02-15T18:05:48.867Z,32.03
2019-02-15T18:08:17.133Z,34.03
2019-02-15T18:10:45.393Z,36.90
2019-02-15T18:13:13.658Z,30.87
2019-02-15T18:15:41.929Z,32.43
2019-02-15T18:18:10.191Z,30.00
2019-02-15T18:20:38.478Z,33.27
2019-02-15T18:23:06.749Z,38.37
2019-02-15T18:25:35.028Z,36.07
2019-02-15T18:28:03.286Z,33.23
2019-02-15T18:30:31.576Z,33.00
2019-02-15T18:32:59.838Z,45.57
2019-02-15T18:35:28.456Z,41.20
2019-02-15T18:37:56.719Z,38.33
2019-02-15T18:40:24.978Z,36.30
2019-02-15T18:42:53.390Z,36.97
2019-02-15T18:45:21.879Z,35.47
2019-02-15T18:47:50.471Z,39.30
2019-02-15T18:50:18.914Z,37.63
2019-02-15T18:52:47.191Z,36.17
2019-02-15T18:55:15.462Z,37.80
2019-02-15T18:57:43.715Z,39.10
2019-02-15T19:00:15.884Z,43.33
2019-02-15T19:02:46.090Z,39.27
2019-02-15T19:05:14.444Z,41.77
2019-02-15T19:07:42.700Z,43.10
2019-02-15T19:10:14.190Z,32.20
2019-02-15T19:12:42.528Z,39.40
2019-02-15T19:15:13.299Z,38.20
2019-02-15T19:17:41.571Z,45.57
2019-02-15T19:20:12.234Z,43.90
2019-02-15T19:22:40.504Z,43.57
2019-02-15T19:25:11.027Z,51.03
2019-02-15T19:27:40.930Z,53.23
2019-02-15T19:30:15.334Z,48.83
2019-02-15T19:32:43.698Z,50.23
2019-02-15T19:35:12.030Z,51.83
2019-02-15T19:37:41.959Z,53.40
2019-02-15T19:40:15.340Z,53.00
2019-02-15T19:42:44.962Z,57.63
2019-02-15T19:45:13.481Z,50.40
2019-02-15T19:47:41.776Z,54.40
2019-02-15T19:50:13.304Z,54.77
2019-02-15T19:52:41.692Z,49.77
2019-02-15T19:55:10.806Z,50.27
2019-02-15T19:57:39.072Z,49.17
2019-02-15T20:00:19.042Z,57.33
2019-02-15T20:02:49.129Z,51.73
2019-02-15T20:05:20.609Z,54.80
2019-02-15T20:07:49.028Z,52.90
2019-02-15T20:10:24.463Z,50.40
2019-02-15T20:12:56.974Z,48.57
2019-02-15T20:15:25.316Z,54.27
2019-02-15T20:17:53.663Z,46.50
2019-02-15T20:20:22.023Z,50.83
2019-02-15T20:22:59.306Z,49.20
2019-02-15T20:25:27.822Z,47.30
2019-02-15T20:27:56.312Z,52.67
2019-02-15T20:30:24.600Z,52.17
2019-02-15T20:32:52.998Z,49.10
2019-02-15T20:35:23.042Z,46.07
2019-02-15T20:37:51.861Z,49.17
2019-02-15T20:40:21.892Z,57.73
2019-02-15T20:42:52.074Z,51.70
2019-02-15T20:45:23.682Z,56.83
2019-02-15T20:47:52.315Z,60.63
2019-02-15T20:50:21.109Z,55.97
2019-02-15T20:52:49.473Z,59.53
2019-02-15T20:55:19.382Z,60.33
2019-02-15T20:57:49.826Z,60.27
2019-02-15T21:00:30.848Z,57.43
2019-02-15T21:02:59.284Z,56.60
2019-02-15T21:05:27.668Z,59.77
2019-02-15T21:07:55.954Z,59.17
2019-02-15T21:10:24.220Z,55.43
2019-02-15T21:12:52.545Z,59.40
2019-02-15T21:15:24.189Z,58.93
2019-02-15T21:17:52.589Z,59.27
2019-02-15T21:20:20.951Z,64.20
2019-02-15T21:22:49.310Z,54.27
2019-02-15T21:25:17.793Z,60.50
2019-02-15T21:27:46.049Z,56.63
2019-02-15T21:30:18.399Z,59.77
2019-02-15T21:32:46.696Z,59.13
2019-02-15T21:35:15.146Z,57.60
2019-02-15T21:37:43.406Z,61.53
2019-02-15T21:40:17.194Z,61.73
2019-02-15T21:42:45.462Z,55.57
2019-02-15T21:45:13.892Z,52.77
2019-02-15T21:47:42.164Z,55.50
2019-02-15T21:50:17.068Z,59.60
2019-02-15T21:52:44.353Z,65.87
2019-02-15T21:55:12.986Z,65.20
2019-02-15T21:57:41.349Z,66.13
2019-02-15T22:00:17.738Z,58.47
2019-02-15T22:02:46.023Z,63.37
2019-02-15T22:05:14.325Z,60.67
2019-02-15T22:07:42.586Z,55.70
2019-02-15T22:10:10.896Z,54.53
2019-02-15T22:12:39.183Z,56.30
2019-02-15T22:15:12.174Z,61.03
2019-02-15T22:17:40.472Z,54.97
2019-02-15T22:20:25.920Z,56.10
2019-02-15T22:22:46.674Z,57.30
2019-02-15T22:25:14.936Z,61.67
2019-02-15T22:27:43.223Z,55.70
2019-02-15T22:30:14.211Z,55.57
2019-02-15T22:32:42.798Z,58.50
2019-02-15T22:35:11.149Z,66.23
2019-02-15T22:37:41.111Z,58.40
2019-02-15T22:40:31.235Z,55.03
2019-02-15T22:43:05.295Z,58.10
2019-02-15T22:45:33.527Z,63.03
2019-02-15T22:48:01.814Z,59.67
2019-02-15T22:50:36.177Z,56.07
2019-02-15T22:53:00.071Z,58.80
2019-02-15T22:55:28.356Z,57.07
2019-02-15T22:57:56.614Z,56.83
2019-02-15T23:00:56.438Z,54.63
2019-02-15T23:03:26.465Z,58.67
2019-02-15T23:05:54.924Z,56.60
2019-02-15T23:08:23.164Z,58.67
2019-02-15T23:10:51.433Z,58.70
2019-02-15T23:13:19.758Z,60.33
2019-02-15T23:15:48.122Z,56.63
2019-02-15T23:18:16.370Z,58.43
2019-02-15T23:20:45.607Z,53.93
2019-02-15T23:23:14.022Z,58.40
2019-02-15T23:25:42.296Z,56.40
2019-02-15T23:28:10.566Z,57.40
2019-02-15T23:30:38.879Z,54.53
2019-02-15T23:33:07.163Z,53.90
2019-02-15T23:35:35.460Z,49.37
2019-02-15T23:38:03.785Z,55.83
2019-02-15T23:40:32.160Z,49.73
2019-02-15T23:43:00.433Z,52.53
2019-02-15T23:45:28.700Z,53.50
2019-02-15T23:47:56.975Z,55.60
2019-02-15T23:50:25.277Z,51.37
2019-02-15T23:52:53.546Z,55.23
2019-02-15T23:55:21.819Z,49.00
2019-02-15T23:57:50.078Z,54.07
